Latest Weather Observations for Oenpelli Airport

IDD60801

Issued at 1:01 pm CST Saturday 18 April 2015 (issued every 30 minutes, with the page automatically refreshed every 10 minutes)

About weather observations | Map of weather stations | Latest weather observations for NT | Other Formats
Station Details ID: 014310 Name: OENPELLI AIRPORT Lat: -12.33 Lon: 133.01 Height: 7.5 m
Data from the previous 72 hours. | See also: Recent months for locations in Northern Territory
Date/Time
CST
Temp
°C
App
Temp
°C
Dew
Point
Rel
Hum
%
Delta-T
°C
Wind Press
QNH
hPa
Press
MSL
hPa
Rain
since 9 am
mm
Dir
 
Spd
km/h
Gust
km/h
Spd
kts
Gust
kts
18/01:00pm 34.4 34.7 18.0 37 10.6 SE 13 20 7 11 1010.4 1010.3 0.0
18/12:30pm 34.1 36.9 19.7 42 9.5 E 4 7 2 4 1010.7 1010.6 0.0
18/12:00pm 33.4 35.4 18.7 41 9.6 ENE 6 9 3 5 1011.0 1010.9 0.0
18/11:30am 33.2 34.3 18.9 42 9.4 ENE 11 15 6 8 1011.6 1011.5 0.0
18/11:00am 32.4 34.2 19.6 46 8.4 ENE 9 17 5 9 1012.2 1012.1 0.0
18/10:30am 32.4 34.3 20.6 49 7.9 ENE 11 19 6 10 1012.6 1012.5 0.0
18/10:00am 31.7 33.2 20.6 51 7.4 NE 13 19 7 10 1012.4 1012.3 0.0
18/09:30am 30.9 32.3 21.1 56 6.6 E 15 19 8 10 1012.6 1012.5 0.0
18/09:00am 30.3 33.0 22.2 62 5.5 ENE 11 17 6 9 1012.7 1012.6 0.0
18/08:30am 29.2 32.6 22.7 68 4.4 ENE 9 15 5 8 1012.6 1012.5 0.0
18/08:00am 28.3 31.1 22.3 70 4.1 ENE 11 15 6 8 1012.4 1012.3 0.0
18/07:30am 27.1 30.3 22.3 75 3.2 NE 9 13 5 7 1012.0 1011.9 0.0
18/07:00am 26.6 29.9 21.8 75 3.2 NE 7 9 4 5 1011.7 1011.6 0.0
18/06:30am 26.0 30.0 22.1 79 2.6 NE 4 6 2 3 1011.5 1011.4 0.0
18/06:00am 26.6 30.1 21.8 75 3.2 SE 6 11 3 6 1011.3 1011.2 0.0
18/05:30am 26.4 30.2 22.7 80 2.5 SE 7 15 4 8 1011.2 1011.1 0.0
18/05:00am 24.6 29.6 23.2 92 0.9 S 2 4 1 2 1011.0 1010.9 0.0
18/04:30am 24.9 30.3 23.3 91 1.1 CALM 0 0 0 0 1010.8 1010.7 0.0
18/04:00am 25.2 30.3 23.3 89 1.3 NNE 2 4 1 2 1010.7 1010.6 0.0
18/03:30am 25.3 30.1 23.5 90 1.2 NE 4 6 2 3 1010.6 1010.5 0.0
18/03:00am 25.4 29.9 23.6 90 1.2 NE 6 7 3 4 1010.7 1010.6 0.0
18/02:30am 25.4 30.2 23.5 89 1.3 NE 4 6 2 3 1010.7 1010.6 0.0
18/02:00am 25.7 30.4 23.4 87 1.6 ENE 4 6 2 3 1010.9 1010.8 0.0
18/01:30am 25.8 30.1 23.3 86 1.7 NE 6 7 3 4 1011.4 1011.3 0.0
18/01:00am 25.9 30.3 23.4 86 1.7 ENE 6 9 3 5 1011.7 1011.6 0.0
18/12:30am 25.7 30.3 23.2 86 1.7 NNE 4 4 2 2 1011.7 1011.6 0.0
18/12:00am 25.9 31.0 23.4 86 1.7 NE 2 4 1 2 1011.9 1011.8 0.0
 
Date/Time
CST
Temp
°C
App
Temp
°C
Dew
Point
Rel
Hum
%
Delta-T
°C
Wind Press
QNH
hPa
Press
MSL
hPa
Rain
since 9 am
mm
Dir
 
Spd
km/h
Gust
km/h
Spd
kts
Gust
kts
17/11:30pm 26.0 30.4 23.5 86 1.7 ENE 6 7 3 4 1012.1 1012.0 0.0
17/11:00pm 25.9 30.8 23.0 84 2.0 E 2 4 1 2 1012.0 1011.9 0.0
17/10:30pm 26.4 30.9 22.9 81 2.4 ENE 4 6 2 3 1012.2 1012.1 0.0
17/10:00pm 26.4 31.1 23.3 83 2.1 ENE 4 4 2 2 1012.1 1012.0 0.0
17/09:30pm 26.4 31.6 22.9 81 2.4 CALM 0 0 0 0 1011.8 1011.7 0.0
17/09:00pm 27.2 32.4 22.8 77 3.0 CALM 0 0 0 0 1011.7 1011.6 0.0
17/08:30pm 27.5 31.3 22.4 73 3.4 NE 6 7 3 4 1011.3 1011.2 0.0
17/08:00pm 27.8 32.0 22.5 73 3.6 NNE 4 6 2 3 1010.9 1010.8 0.0
17/07:30pm 28.2 32.3 22.2 70 4.1 NE 4 6 2 3 1010.6 1010.5 0.0
17/07:00pm 28.8 32.3 22.1 67 4.5 NE 7 9 4 5 1010.3 1010.2 0.0
17/06:30pm 29.5 33.2 22.2 65 4.9 NNE 6 7 3 4 1009.9 1009.8 0.0
17/06:00pm 30.7 33.2 21.8 59 6.0 NE 11 15 6 8 1009.6 1009.5 0.0
17/05:30pm 31.3 32.9 21.5 56 6.6 NE 15 20 8 11 1009.3 1009.2 0.0
17/05:00pm 33.4 34.2 19.1 42 9.4 NE 13 17 7 9 1009.0 1008.9 0.0
17/04:30pm 33.6 34.7 19.7 44 9.2 NE 13 20 7 11 1008.9 1008.8 0.0
17/04:00pm 34.1 34.7 18.6 40 10.1 ENE 13 19 7 10 1008.8 1008.7 0.0
17/03:30pm 33.6 34.1 19.3 43 9.4 ENE 15 24 8 13 1008.9 1008.8 0.0
17/03:00pm 33.9 34.8 19.2 42 9.7 NE 13 20 7 11 1009.1 1009.0 0.0
17/02:30pm 34.1 35.1 19.4 42 9.7 ENE 13 20 7 11 1009.6 1009.5 0.0
17/02:00pm 33.8 35.5 20.2 44 9.1 NE 11 17 6 9 1009.9 1009.8 0.0
17/01:30pm 33.5 34.4 19.2 43 9.4 NE 13 20 7 11 1010.4 1010.3 0.0
17/01:00pm 33.4 35.3 20.5 46 8.6 ENE 11 19 6 10 1011.0 1010.9 0.0
17/12:30pm 33.3 34.6 20.1 45 8.8 ENE 13 22 7 12 1011.5 1011.4 0.0
17/12:00pm 32.7 33.5 19.9 46 8.5 ENE 15 24 8 13 1011.8 1011.7 0.0
17/11:30am 32.4 34.3 21.3 52 7.5 ENE 13 24 7 13 1012.4 1012.3 0.0
17/11:00am 31.9 33.8 21.4 53 7.1 ENE 13 19 7 10 1012.7 1012.6 0.0
17/10:30am 31.2 32.8 21.4 56 6.6 ENE 15 22 8 12 1013.1 1013.0 0.0
17/10:00am 30.6 32.4 21.1 57 6.4 ENE 13 19 7 10 1013.3 1013.2 0.0
17/09:30am 29.9 31.6 21.6 61 5.6 E 15 20 8 11 1013.5 1013.4 0.0
17/09:00am 29.5 31.9 22.2 65 4.9 E 13 20 7 11 1013.3 1013.2 2.0
17/08:30am 28.8 32.1 22.5 68 4.3 E 9 13 5 7 1013.2 1013.1 2.0
17/08:00am 28.0 32.6 23.2 75 3.3 E 4 7 2 4 1013.0 1012.9 2.0
17/07:30am 27.0 32.3 23.0 79 2.7 CALM 0 2 0 1 1013.0 1012.9 2.0
17/07:00am 25.9 30.5 23.2 85 1.8 ENE 4 6 2 3 1012.5 1012.4 2.0
17/06:30am 25.4 30.7 23.1 87 1.6 CALM 0 0 0 0 1012.2 1012.1 2.0
17/06:00am 25.1 30.5 23.2 89 1.3 CALM 0 0 0 0 1011.9 1011.8 2.0
17/05:30am 25.5 30.4 23.0 86 1.7 E 2 4 1 2 1011.4 1011.3 2.0
17/05:00am 25.4 31.0 23.5 89 1.3 CALM 0 0 0 0 1011.3 1011.2 2.0
17/04:30am 25.5 30.3 22.8 85 1.8 E 2 4 1 2 1011.3 1011.2 2.0
17/04:00am 25.8 31.1 23.1 85 1.8 CALM 0 2 0 1 1011.4 1011.3 2.0
17/03:30am 25.8 30.4 23.1 85 1.8 SE 4 6 2 3 1011.4 1011.3 2.0
17/03:00am 26.1 30.3 23.2 84 2.0 ESE 6 7 3 4 1011.6 1011.5 2.0
17/02:30am 26.5 31.2 23.4 83 2.1 ESE 4 6 2 3 1012.0 1011.9 2.0
17/02:00am 26.3 32.1 24.5 90 1.2 S 2 6 1 3 1012.3 1012.2 2.0
17/01:30am 26.1 32.2 24.5 91 1.1 CALM 0 0 0 0 1012.8 1012.7 2.0
17/01:00am 26.1 32.4 24.7 92 1.0 CALM 0 0 0 0 1013.1 1013.0 2.0
17/12:30am 26.3 32.6 24.7 91 1.1 CALM 0 0 0 0 1013.7 1013.6 2.0
17/12:00am 26.3 32.4 24.5 90 1.2 CALM 0 2 0 1 1014.2 1014.1 2.0
 
Date/Time
CST
Temp
°C
App
Temp
°C
Dew
Point
Rel
Hum
%
Delta-T
°C
Wind Press
QNH
hPa
Press
MSL
hPa
Rain
since 9 am
mm
Dir
 
Spd
km/h
Gust
km/h
Spd
kts
Gust
kts
16/11:30pm 26.1 31.7 24.3 90 1.2 SSE 2 2 1 1 1014.2 1014.1 2.0
16/11:00pm 26.2 31.8 24.2 89 1.4 SSE 2 6 1 3 1014.2 1014.1 2.0
16/10:30pm 26.5 32.5 24.3 88 1.5 CALM 0 0 0 0 1014.3 1014.2 2.0
16/10:00pm 26.1 31.2 24.0 88 1.4 SE 4 6 2 3 1014.5 1014.4 2.0
16/09:30pm 25.9 30.4 23.9 89 1.4 SE 7 13 4 7 1014.5 1014.4 2.0
16/09:00pm 25.8 28.2 23.7 88 1.4 ESE 17 24 9 13 1014.5 1014.4 1.6
16/08:30pm 27.2 32.5 24.3 84 2.0 E 4 6 2 3 1013.5 1013.4 0.0
16/08:00pm 27.2 32.0 24.1 83 2.1 NNE 6 7 3 4 1012.9 1012.8 0.0
16/07:30pm 27.7 32.9 23.5 78 2.9 NE 2 4 1 2 1012.5 1012.4 0.0
16/07:00pm 28.4 33.4 23.8 76 3.2 ENE 4 7 2 4 1012.3 1012.2 0.0
16/06:30pm 28.6 32.9 23.3 73 3.6 NNE 6 11 3 6 1011.9 1011.8 0.0
16/06:00pm 29.4 33.9 23.6 71 4.0 N 6 9 3 5 1011.4 1011.3 0.0
16/05:30pm 29.6 34.2 23.8 71 4.0 NNW 6 9 3 5 1011.2 1011.1 0.0
16/05:00pm 29.4 32.8 23.4 70 4.1 NNW 11 15 6 8 1011.1 1011.0 0.0
16/04:30pm 30.1 33.6 23.5 67 4.6 NNW 11 20 6 11 1011.1 1011.0 0.0
16/04:00pm 31.3 32.1 20.6 53 7.1 ENE 17 28 9 15 1011.1 1011.0 0.0
16/03:30pm 31.8 32.1 20.4 51 7.6 ENE 19 28 10 15 1011.4 1011.3 0.0
16/03:00pm 32.1 32.5 21.0 52 7.4 E 20 28 11 15 1011.6 1011.5 0.0
16/02:30pm 30.9 31.9 21.1 56 6.6 E 17 26 9 14 1012.1 1012.0 0.0
16/02:00pm 29.7 29.3 21.6 61 5.4 E 26 41 14 22 1012.9 1012.8 0.0
16/01:30pm 29.1 28.1 21.3 62 5.2 E 28 37 15 20 1013.0 1012.9 0.0
16/01:15pm 30.8 30.0 21.6 58 6.2 E 28 44 15 24 1013.0 1012.9 0.0
16/01:00pm 32.5 33.8 21.7 53 7.3 E 17 22 9 12 1012.8 1012.7 0.0
16/12:30pm 32.0 34.8 21.5 53 7.1 NE 9 13 5 7 1013.3 1013.2 0.0
16/12:00pm 31.1 33.7 21.9 58 6.2 NE 11 17 6 9 1014.2 1014.1 0.0
16/11:30am 29.9 31.0 21.3 60 5.8 NNE 17 24 9 13 1015.0 1014.9 0.0
16/11:00am 31.0 31.1 21.2 56 6.6 ENE 22 33 12 18 1015.3 1015.2 0.0
16/10:30am 30.8 30.5 20.4 54 6.9 ENE 22 33 12 18 1015.2 1015.1 0.0
16/10:00am 31.0 31.5 20.9 55 6.7 ENE 19 30 10 16 1015.1 1015.0 0.0
16/09:30am 30.4 31.3 21.5 59 6.0 ENE 19 28 10 15 1015.0 1014.9 0.0
16/09:00am 29.9 31.9 21.6 61 5.6 E 13 20 7 11 1014.7 1014.6 0.0
16/08:30am 29.0 31.7 22.2 66 4.6 E 11 19 6 10 1014.5 1014.4 0.0
16/08:00am 27.9 31.5 22.4 72 3.7 ESE 7 13 4 7 1014.4 1014.3 0.0
16/07:30am 26.5 30.6 22.3 78 2.8 SE 4 6 2 3 1014.1 1014.0 0.0
16/07:00am 24.4 29.1 21.9 86 1.7 CALM 0 2 0 1 1013.9 1013.8 0.0
16/06:30am 25.0 29.2 21.7 82 2.2 E 2 6 1 3 1013.6 1013.5 0.0
16/06:00am 25.2 29.0 21.7 81 2.3 E 4 6 2 3 1013.3 1013.2 0.0
16/05:30am 25.3 29.0 21.4 79 2.6 ESE 4 6 2 3 1013.0 1012.9 0.0
16/05:00am 25.4 28.6 21.3 78 2.7 ESE 6 6 3 3 1012.7 1012.6 0.0
16/04:30am 25.6 28.7 21.1 76 3.0 ESE 6 7 3 4 1012.7 1012.6 0.0
16/04:00am 26.1 29.2 21.1 74 3.3 ESE 6 11 3 6 1012.8 1012.7 0.0
16/03:30am 26.2 29.3 21.0 73 3.4 E 6 9 3 5 1012.9 1012.8 0.0
16/03:00am 26.4 29.2 20.9 72 3.6 SE 7 9 4 5 1012.9 1012.8 0.0
16/02:30am 25.7 29.2 21.1 76 3.0 SE 4 6 2 3 1012.9 1012.8 0.0
16/02:00am 26.2 29.3 21.4 75 3.2 E 7 9 4 5 1013.2 1013.1 0.0
16/01:30am 25.9 29.8 21.8 78 2.7 ESE 4 9 2 5 1013.7 1013.6 0.0
16/01:00am 25.2 30.4 22.9 87 1.6 CALM 0 0 0 0 1014.1 1014.0 0.0
16/12:30am 25.4 30.5 22.7 85 1.8 CALM 0 0 0 0 1014.4 1014.3 0.0
16/12:00am 26.1 30.5 22.8 82 2.2 NE 4 6 2 3 1014.8 1014.7 0.0
 
Date/Time
CST
Temp
°C
App
Temp
°C
Dew
Point
Rel
Hum
%
Delta-T
°C
Wind Press
QNH
hPa
Press
MSL
hPa
Rain
since 9 am
mm
Dir
 
Spd
km/h
Gust
km/h
Spd
kts
Gust
kts
15/11:30pm 25.7 31.0 23.0 85 1.8 CALM 0 0 0 0 1014.9 1014.8 0.0
15/11:00pm 26.0 30.9 23.1 84 2.0 ENE 2 2 1 1 1015.0 1014.9 0.0
15/10:30pm 26.2 30.3 22.9 82 2.2 NE 6 7 3 4 1015.0 1014.9 0.0
15/10:00pm 26.4 30.4 23.1 82 2.2 NE 7 9 4 5 1014.9 1014.8 0.0
15/09:30pm 26.5 30.7 23.2 82 2.2 NE 6 7 3 4 1014.6 1014.5 0.0
15/09:00pm 26.9 31.1 23.2 80 2.5 NE 6 7 3 4 1014.4 1014.3 0.0
15/08:30pm 27.1 30.7 23.1 79 2.7 NE 9 15 5 8 1013.8 1013.7 0.0
15/08:00pm 27.3 30.4 22.9 77 3.0 NE 11 15 6 8 1013.4 1013.3 0.0
15/07:30pm 27.5 30.0 22.4 73 3.4 NE 13 20 7 11 1012.9 1012.8 0.0
15/07:00pm 28.6 31.2 22.6 70 4.1 NE 13 20 7 11 1012.2 1012.1 0.0
15/06:30pm 30.2 33.6 23.4 67 4.7 NE 11 20 6 11 1011.8 1011.7 0.0
15/06:00pm 31.3 34.5 23.7 64 5.3 NNE 13 17 7 9 1011.4 1011.3 0.0
15/05:30pm 33.7 35.9 20.5 46 8.8 ENE 9 19 5 10 1011.0 1010.9 0.0
15/05:00pm 34.0 35.4 19.6 42 9.5 ENE 11 19 6 10 1010.7 1010.6 0.0
15/04:30pm 34.7 35.7 19.5 40 10.1 ENE 13 20 7 11 1010.8 1010.7 0.0
15/04:00pm 34.0 34.9 19.3 42 9.7 ESE 13 22 7 12 1010.8 1010.7 0.0
15/03:30pm 34.5 36.3 21.2 46 9.0 E 13 22 7 12 1010.7 1010.6 0.0
15/03:00pm 34.7 35.7 20.3 43 9.6 ENE 15 20 8 11 1010.9 1010.8 0.0
15/02:30pm 34.5 34.8 19.7 41 9.8 ENE 17 24 9 13 1011.4 1011.3 0.0
15/02:00pm 34.3 35.3 20.3 44 9.4 E 15 20 8 11 1011.9 1011.8 0.0
15/01:30pm 34.3 35.1 20.7 45 9.1 E 17 26 9 14 1012.3 1012.2 0.0

Other Formats:

Comma delimited format used in spreadsheet applications
http://www.bom.gov.au/fwo/IDD60801/IDD60801.94110.axf

JavaScript Object Notation format (JSON) in row-major order
http://www.bom.gov.au/fwo/IDD60801/IDD60801.94110.json